Moleson — HBLE — position and weather

sailwx.info

Track history (hours):
 
Tides and Currents Weather Stations Pressure Air Temp Water Temp Dewpoint Dewpoint Depression Visibility Wind Speed Wind Dir Waves Ship Positions

Moleson

Last reported at 2016-Apr-08 02:06 UTC. Time now 2016-May-05 02:52 UTC.
Position S 22°47' W 041°10'.
Warning: this ship's position is 27 days out of date.

Length 181 m; draft 8.7 m.

Type: Ship. MMSI: 269039000.

Date/timePositionNaut miles runAvg speedWind from/ knotsBaromVisibWave heightAir tempDewpointWater temp
2016-Apr-08 02:06S 22°47' W 041°10'611.8
2016-Apr-08 01:33S 22°53' W 041°14'1211.8
2016-Apr-08 00:33S 23°02' W 041°22'1211.8
2016-Apr-07 23:33S 23°10' W 041°31'1211.7
2016-Apr-07 22:33S 23°19' W 041°40'1212.0
2016-Apr-07 21:33S 23°28' W 041°48'1212.0
2016-Apr-07 20:33S 23°36' W 041°57'  
2016-Apr-04 04:15S 35°04' W 055°60'7 7.9
2016-Apr-04 03:21S 35°08' W 056°07'76 6.9
2016-Apr-03 16:21S 34°45' W 057°36'810.4
2016-Apr-03 15:33S 34°44' W 057°46'9 9.3
2016-Apr-03 14:33S 34°41' W 057°57'1010.2
2016-Apr-03 13:33S 34°38' W 058°08'1310.6
2016-Apr-03 12:19S 34°30' W 058°22'  
Track history (hours):
 
Tides and Currents Weather Stations Pressure Air Temp Water Temp Dewpoint Dewpoint Depression Visibility Wind Speed Wind Dir Waves Ship Positions

Moleson

Last reported at 2016-Apr-08 02:06 UTC. Time now 2016-May-05 02:52 UTC.
Position S 22°47' W 041°10'.
Warning: this ship's position is 27 days out of date.

Length 181 m; draft 8.7 m.

Type: Ship. MMSI: 269039000.

Date/timePositionNaut miles runAvg speedWind from/ knotsBaromVisibWave heightAir tempDewpointWater temp
2016-Apr-08 02:06S 22°47' W 041°10'611.8
2016-Apr-08 01:33S 22°53' W 041°14'1211.8
2016-Apr-08 00:33S 23°02' W 041°22'1211.8
2016-Apr-07 23:33S 23°10' W 041°31'1211.7
2016-Apr-07 22:33S 23°19' W 041°40'1212.0
2016-Apr-07 21:33S 23°28' W 041°48'1212.0
2016-Apr-07 20:33S 23°36' W 041°57'  
2016-Apr-04 04:15S 35°04' W 055°60'7 7.9
2016-Apr-04 03:21S 35°08' W 056°07'76 6.9
2016-Apr-03 16:21S 34°45' W 057°36'810.4
2016-Apr-03 15:33S 34°44' W 057°46'9 9.3
2016-Apr-03 14:33S 34°41' W 057°57'1010.2
2016-Apr-03 13:33S 34°38' W 058°08'1310.6
2016-Apr-03 12:19S 34°30' W 058°22'  

Dump ship's entire track history